createdAt,value
2018-09-16T00:01:40.598Z,55.11
2018-09-16T00:04:08.244Z,54.80
2018-09-16T00:06:35.890Z,55.27
2018-09-16T00:09:05.881Z,54.76
2018-09-16T00:11:33.812Z,54.69
2018-09-16T00:14:01.483Z,55.38
2018-09-16T00:16:29.146Z,54.93
2018-09-16T00:18:56.767Z,55.09
2018-09-16T00:21:24.875Z,55.29
2018-09-16T00:23:52.541Z,55.33
2018-09-16T00:26:20.185Z,55.06
2018-09-16T00:28:47.833Z,54.75
2018-09-16T00:31:15.797Z,55.27
2018-09-16T00:33:43.542Z,54.82
2018-09-16T00:36:11.269Z,54.95
2018-09-16T00:38:39.045Z,54.65
2018-09-16T00:41:07.121Z,55.10
2018-09-16T00:43:34.744Z,55.31
2018-09-16T00:46:02.446Z,55.38
2018-09-16T00:48:30.149Z,55.05
2018-09-16T00:50:58.056Z,54.71
2018-09-16T00:53:25.680Z,54.66
2018-09-16T00:55:53.549Z,55.06
2018-09-16T00:58:21.855Z,54.74
2018-09-16T01:00:58.587Z,55.06
2018-09-16T01:03:26.288Z,54.69
2018-09-16T01:06:00.060Z,54.77
2018-09-16T01:08:27.664Z,54.83
2018-09-16T01:10:56.789Z,55.47
2018-09-16T01:13:24.466Z,54.72
2018-09-16T01:15:52.150Z,54.80
2018-09-16T01:18:19.796Z,54.75
2018-09-16T01:20:47.461Z,54.73
2018-09-16T01:23:15.090Z,55.12
2018-09-16T01:25:43.234Z,54.94
2018-09-16T01:28:11.044Z,55.09
2018-09-16T01:30:38.908Z,55.26
2018-09-16T01:33:06.684Z,54.78
2018-09-16T01:35:34.625Z,55.45
2018-09-16T01:38:07.721Z,54.81
2018-09-16T01:40:35.673Z,55.37
2018-09-16T01:43:03.354Z,55.46
2018-09-16T01:45:31.901Z,54.85
2018-09-16T01:48:00.492Z,55.45
2018-09-16T01:50:28.474Z,55.53
2018-09-16T01:52:56.104Z,54.85
2018-09-16T01:55:24.142Z,54.81
2018-09-16T01:57:52.162Z,55.36
2018-09-16T02:00:23.865Z,54.82
2018-09-16T02:02:53.409Z,55.50
2018-09-16T02:05:26.844Z,55.30
2018-09-16T02:07:55.263Z,55.55
2018-09-16T02:10:23.196Z,54.92
2018-09-16T02:12:51.225Z,54.82
2018-09-16T02:15:19.801Z,54.90
2018-09-16T02:17:47.485Z,54.88
2018-09-16T02:20:15.169Z,54.87
2018-09-16T02:22:43.198Z,55.41
2018-09-16T02:25:10.887Z,54.92
2018-09-16T02:27:39.098Z,55.19
2018-09-16T02:30:07.066Z,55.57
2018-09-16T02:32:35.358Z,55.45
2018-09-16T02:35:03.001Z,55.08
2018-09-16T02:37:30.666Z,55.14
2018-09-16T02:39:58.335Z,55.25
2018-09-16T02:42:26.332Z,55.27
2018-09-16T02:44:55.262Z,55.43
2018-09-16T02:47:22.891Z,55.67
2018-09-16T02:49:50.921Z,55.42
2018-09-16T02:52:18.860Z,55.57
2018-09-16T02:54:46.511Z,55.29
2018-09-16T02:57:14.177Z,55.39
2018-09-16T02:59:42.559Z,55.54
2018-09-16T03:02:10.764Z,55.41
2018-09-16T03:04:38.415Z,55.73
2018-09-16T03:07:07.243Z,55.71
2018-09-16T03:09:35.192Z,55.52
2018-09-16T03:12:03.193Z,55.74
2018-09-16T03:14:31.196Z,55.66
2018-09-16T03:16:59.257Z,55.41
2018-09-16T03:19:27.247Z,55.53
2018-09-16T03:21:54.884Z,55.45
2018-09-16T03:24:22.535Z,55.78
2018-09-16T03:26:50.519Z,55.93
2018-09-16T03:29:18.282Z,55.75
2018-09-16T03:31:45.973Z,55.68
2018-09-16T03:34:13.992Z,55.24
2018-09-16T03:36:42.288Z,55.29
2018-09-16T03:39:10.624Z,55.27
2018-09-16T03:41:38.606Z,55.72
2018-09-16T03:44:06.674Z,55.63
2018-09-16T03:46:34.659Z,55.30
2018-09-16T03:49:02.545Z,55.49
2018-09-16T03:51:31.047Z,55.32
2018-09-16T03:53:59.037Z,55.82
2018-09-16T03:56:27.079Z,55.49
2018-09-16T03:58:54.756Z,55.20
2018-09-16T04:01:22.647Z,55.74
2018-09-16T04:03:50.373Z,55.71
2018-09-16T04:06:18.529Z,55.49
2018-09-16T04:08:46.847Z,55.92
2018-09-16T04:11:14.503Z,56.01
2018-09-16T04:13:42.680Z,56.00
2018-09-16T04:16:10.308Z,55.42
2018-09-16T04:18:37.943Z,55.29
2018-09-16T04:21:05.956Z,55.50
2018-09-16T04:23:43.016Z,56.12
2018-09-16T04:26:10.866Z,55.90
2018-09-16T04:28:39.142Z,55.77
2018-09-16T04:31:06.824Z,55.92
2018-09-16T04:33:34.525Z,56.29
2018-09-16T04:36:02.386Z,55.90
2018-09-16T04:38:32.166Z,55.49
2018-09-16T04:40:59.871Z,55.42
2018-09-16T04:43:27.806Z,55.90
2018-09-16T04:45:55.741Z,55.73
2018-09-16T04:48:23.498Z,55.96
2018-09-16T04:50:51.145Z,55.90
2018-09-16T04:53:18.803Z,55.52
2018-09-16T04:55:47.516Z,55.78
2018-09-16T04:58:15.411Z,55.64
2018-09-16T05:00:43.051Z,55.53
2018-09-16T05:03:10.961Z,55.64
2018-09-16T05:05:38.660Z,55.49
2018-09-16T05:08:06.296Z,55.42
2018-09-16T05:10:34.591Z,55.73
2018-09-16T05:13:02.753Z,55.67
2018-09-16T05:15:30.929Z,55.57
2018-09-16T05:17:58.991Z,55.89
2018-09-16T05:20:28.109Z,55.26
2018-09-16T05:22:55.748Z,55.32
2018-09-16T05:25:23.386Z,55.36
2018-09-16T05:27:51.049Z,55.36
2018-09-16T05:30:18.777Z,55.41
2018-09-16T05:32:46.401Z,55.39
2018-09-16T05:35:14.028Z,55.21
2018-09-16T05:37:42.157Z,55.39
2018-09-16T05:40:09.785Z,55.72
2018-09-16T05:42:37.441Z,55.51
2018-09-16T05:45:05.845Z,55.41
2018-09-16T05:47:33.517Z,55.18
2018-09-16T05:50:01.168Z,55.19
2018-09-16T05:52:29.150Z,55.28
2018-09-16T05:54:56.857Z,55.36
2018-09-16T05:57:24.840Z,55.41
2018-09-16T05:59:52.940Z,55.21
2018-09-16T06:02:21.422Z,55.10
2018-09-16T06:04:49.812Z,55.31
2018-09-16T06:07:17.572Z,54.89
2018-09-16T06:09:45.271Z,55.45
2018-09-16T06:12:12.958Z,54.85
2018-09-16T06:14:40.885Z,54.81
2018-09-16T06:17:08.562Z,55.10
2018-09-16T06:19:36.381Z,55.28
2018-09-16T06:22:04.012Z,54.44
2018-09-16T06:24:31.854Z,54.63
2018-09-16T06:27:00.253Z,54.74
2018-09-16T06:29:27.942Z,54.56
2018-09-16T06:31:55.631Z,54.99
2018-09-16T06:34:23.618Z,55.00
2018-09-16T06:36:53.574Z,55.04
2018-09-16T06:39:21.276Z,54.50
2018-09-16T06:41:49.204Z,54.00
2018-09-16T06:44:17.228Z,54.41
2018-09-16T06:46:44.950Z,54.46
2018-09-16T06:49:13.561Z,54.20
2018-09-16T06:51:42.082Z,54.02
2018-09-16T06:54:09.744Z,54.20
2018-09-16T06:56:37.453Z,54.36
2018-09-16T06:59:05.069Z,53.96
2018-09-16T07:01:33.271Z,54.12
2018-09-16T07:04:01.220Z,54.20
2018-09-16T07:06:32.765Z,53.91
2018-09-16T07:09:00.490Z,54.42
2018-09-16T07:11:28.765Z,53.65
2018-09-16T07:13:56.746Z,54.09
2018-09-16T07:16:24.541Z,53.70
2018-09-16T07:18:52.914Z,53.70
2018-09-16T07:21:20.861Z,54.16
2018-09-16T07:23:48.875Z,54.18
2018-09-16T07:26:16.843Z,53.63
2018-09-16T07:28:45.086Z,54.20
2018-09-16T07:31:13.298Z,53.98
2018-09-16T07:33:41.210Z,53.72
2018-09-16T07:36:09.228Z,53.60
2018-09-16T07:38:38.090Z,53.89
2018-09-16T07:41:05.772Z,53.67
2018-09-16T07:43:33.450Z,53.60
2018-09-16T07:46:01.442Z,53.48
2018-09-16T07:48:29.861Z,53.47
2018-09-16T07:50:57.488Z,53.41
2018-09-16T07:53:25.174Z,54.05
2018-09-16T07:55:53.066Z,53.83
2018-09-16T07:58:21.142Z,53.47
2018-09-16T08:00:48.811Z,53.25
2018-09-16T08:03:16.805Z,53.33
2018-09-16T08:05:44.492Z,53.94
2018-09-16T08:08:12.565Z,53.76
2018-09-16T08:10:40.225Z,53.15
2018-09-16T08:13:07.873Z,53.53
2018-09-16T08:15:35.589Z,53.82
2018-09-16T08:18:03.553Z,53.17
2018-09-16T08:20:31.631Z,53.26
2018-09-16T08:22:59.311Z,53.71
2018-09-16T08:25:26.933Z,53.00
2018-09-16T08:27:54.621Z,53.09
2018-09-16T08:30:22.310Z,53.08
2018-09-16T08:32:49.966Z,52.60
2018-09-16T08:35:17.644Z,52.74
2018-09-16T08:37:45.609Z,52.97
2018-09-16T08:40:13.732Z,53.34
2018-09-16T08:42:42.153Z,52.81
2018-09-16T08:45:09.829Z,53.27
2018-09-16T08:47:37.780Z,53.34
2018-09-16T08:50:06.467Z,53.20
2018-09-16T08:52:34.388Z,52.59
2018-09-16T08:55:02.049Z,52.52
2018-09-16T08:57:30.074Z,53.13
2018-09-16T08:59:57.934Z,52.45
2018-09-16T09:02:25.977Z,53.09
2018-09-16T09:04:53.668Z,52.38
2018-09-16T09:07:27.640Z,52.75
2018-09-16T09:09:56.715Z,52.40
2018-09-16T09:12:24.453Z,52.33
2018-09-16T09:14:52.265Z,52.44
2018-09-16T09:17:20.084Z,52.23
2018-09-16T09:19:47.726Z,52.73
2018-09-16T09:22:16.325Z,52.65
2018-09-16T09:24:43.988Z,52.71
2018-09-16T09:27:11.726Z,52.66
2018-09-16T09:29:39.416Z,52.47
2018-09-16T09:32:07.465Z,51.97
2018-09-16T09:34:35.565Z,52.49
2018-09-16T09:37:03.276Z,52.46
2018-09-16T09:39:31.227Z,51.75
2018-09-16T09:41:59.240Z,52.29
2018-09-16T09:44:27.204Z,51.54
2018-09-16T09:46:56.035Z,51.51
2018-09-16T09:49:24.637Z,52.11
2018-09-16T09:51:52.845Z,51.99
2018-09-16T09:54:20.543Z,52.05
2018-09-16T09:56:48.266Z,51.29
2018-09-16T09:59:16.382Z,51.22
2018-09-16T10:01:44.586Z,51.73
2018-09-16T10:04:12.500Z,51.64
2018-09-16T10:06:40.226Z,51.19
2018-09-16T10:09:09.681Z,51.81
2018-09-16T10:11:38.301Z,51.02
2018-09-16T10:14:06.092Z,51.24
2018-09-16T10:16:34.135Z,51.05
2018-09-16T10:19:01.841Z,51.59
2018-09-16T10:21:29.616Z,50.95
2018-09-16T10:23:57.396Z,51.56
2018-09-16T10:26:25.341Z,51.41
2018-09-16T10:28:53.313Z,51.04
2018-09-16T10:31:22.778Z,51.16
2018-09-16T10:33:50.418Z,50.67
2018-09-16T10:36:18.187Z,50.90
2018-09-16T10:38:46.408Z,50.74
2018-09-16T10:41:14.081Z,50.31
2018-09-16T10:43:42.286Z,50.96
2018-09-16T10:46:10.326Z,50.17
2018-09-16T10:48:38.037Z,50.82
2018-09-16T10:51:05.961Z,49.96
2018-09-16T10:53:33.938Z,49.98
2018-09-16T10:56:01.578Z,49.86
2018-09-16T10:58:29.229Z,49.82
2018-09-16T11:00:56.880Z,50.46
2018-09-16T11:03:25.082Z,50.13
2018-09-16T11:05:53.274Z,49.65
2018-09-16T11:08:21.307Z,49.85
2018-09-16T11:10:49.274Z,50.20
2018-09-16T11:13:17.324Z,49.67
2018-09-16T11:15:45.211Z,50.12
2018-09-16T11:18:13.196Z,49.38
2018-09-16T11:20:40.821Z,50.01
2018-09-16T11:23:08.469Z,50.02
2018-09-16T11:25:36.983Z,50.06
2018-09-16T11:28:05.141Z,49.62
2018-09-16T11:30:33.109Z,49.45
2018-09-16T11:33:00.761Z,50.09
2018-09-16T11:35:28.778Z,49.47
2018-09-16T11:37:56.491Z,50.29
2018-09-16T11:40:24.713Z,50.27
2018-09-16T11:42:52.366Z,50.09
2018-09-16T11:45:20.454Z,49.59
2018-09-16T11:47:48.447Z,49.65
2018-09-16T11:50:16.385Z,50.01
2018-09-16T11:52:44.095Z,49.21
2018-09-16T11:55:11.773Z,49.83
2018-09-16T11:57:39.459Z,49.52
2018-09-16T12:00:07.220Z,49.15
2018-09-16T12:02:35.722Z,48.69
2018-09-16T12:05:03.754Z,48.69
2018-09-16T12:07:31.789Z,49.46
2018-09-16T12:09:59.981Z,49.42
2018-09-16T12:12:27.751Z,48.63
2018-09-16T12:14:55.416Z,49.42
2018-09-16T12:17:23.304Z,49.17
2018-09-16T12:19:51.459Z,49.38
2018-09-16T12:22:19.154Z,49.11
2018-09-16T12:24:47.116Z,49.79
2018-09-16T12:27:14.769Z,49.26
2018-09-16T12:29:42.478Z,48.92
2018-09-16T12:32:10.149Z,49.57
2018-09-16T12:34:38.069Z,49.12
2018-09-16T12:37:05.894Z,49.78
2018-09-16T12:39:33.596Z,49.62
2018-09-16T12:42:01.485Z,48.87
2018-09-16T12:44:29.694Z,48.93
2018-09-16T12:46:57.414Z,49.07
2018-09-16T12:49:25.372Z,48.85
2018-09-16T12:51:53.121Z,49.43
2018-09-16T12:54:21.102Z,48.79
2018-09-16T12:56:48.986Z,49.13
2018-09-16T12:59:16.661Z,48.84
2018-09-16T13:01:44.587Z,49.64
2018-09-16T13:04:12.479Z,49.03
2018-09-16T13:06:40.110Z,48.91
2018-09-16T13:09:09.383Z,48.93
2018-09-16T13:11:37.090Z,49.73
2018-09-16T13:14:05.089Z,49.01
2018-09-16T13:16:32.753Z,48.80
2018-09-16T13:19:00.612Z,49.23
2018-09-16T13:21:28.285Z,48.63
2018-09-16T13:23:56.272Z,49.20
2018-09-16T13:26:24.310Z,49.06
2018-09-16T13:28:52.339Z,48.73
2018-09-16T13:31:19.986Z,48.04
2018-09-16T13:33:50.324Z,47.83
2018-09-16T13:36:18.121Z,48.34
2018-09-16T13:38:46.119Z,48.20
2018-09-16T13:41:13.788Z,48.19
2018-09-16T13:43:41.661Z,47.99
2018-09-16T13:46:09.394Z,47.62
2018-09-16T13:48:37.062Z,47.61
2018-09-16T13:51:04.740Z,47.89
2018-09-16T13:53:32.391Z,47.41
2018-09-16T13:56:00.164Z,48.05
2018-09-16T13:58:28.198Z,47.42
2018-09-16T14:00:56.325Z,47.33
2018-09-16T14:03:23.951Z,47.79
2018-09-16T14:05:51.852Z,48.11
2018-09-16T14:08:19.538Z,47.58
2018-09-16T14:10:48.190Z,47.52
2018-09-16T14:13:17.045Z,47.40
2018-09-16T14:15:44.685Z,47.95
2018-09-16T14:18:12.411Z,47.52
2018-09-16T14:20:40.508Z,47.36
2018-09-16T14:23:08.276Z,47.81
2018-09-16T14:25:36.547Z,47.51
2018-09-16T14:28:04.597Z,48.21
2018-09-16T14:30:32.971Z,47.60
2018-09-16T14:33:01.035Z,47.86
2018-09-16T14:35:28.838Z,47.09
2018-09-16T14:37:56.778Z,47.51
2018-09-16T14:40:24.667Z,47.90
2018-09-16T14:42:52.797Z,47.86
2018-09-16T14:45:20.805Z,47.64
2018-09-16T14:47:48.970Z,46.80
2018-09-16T14:50:16.608Z,47.03
2018-09-16T14:52:44.533Z,47.13
2018-09-16T14:55:12.534Z,47.79
2018-09-16T14:57:40.163Z,47.59
2018-09-16T15:00:07.848Z,48.05
2018-09-16T15:02:35.755Z,47.90
2018-09-16T15:05:03.700Z,47.82
2018-09-16T15:07:31.476Z,47.85
2018-09-16T15:09:59.124Z,47.51
2018-09-16T15:12:27.195Z,48.18
2018-09-16T15:14:55.100Z,48.24
2018-09-16T15:17:23.281Z,48.33
2018-09-16T15:19:51.204Z,48.46
2018-09-16T15:22:19.173Z,47.57
2018-09-16T15:24:47.391Z,47.06
2018-09-16T15:27:15.061Z,47.54
2018-09-16T15:29:42.767Z,47.29
2018-09-16T15:32:10.517Z,47.67
2018-09-16T15:34:38.191Z,48.26
2018-09-16T15:37:06.160Z,48.39
2018-09-16T15:39:34.141Z,48.32
2018-09-16T15:42:01.754Z,48.86
2018-09-16T15:44:29.716Z,48.52
2018-09-16T15:46:57.654Z,48.93
2018-09-16T15:49:25.616Z,48.74
2018-09-16T15:51:56.769Z,48.59
2018-09-16T15:54:24.438Z,49.28
2018-09-16T15:56:52.388Z,48.98
2018-09-16T15:59:20.081Z,49.25
2018-09-16T16:01:47.708Z,49.34
2018-09-16T16:04:15.646Z,48.87
2018-09-16T16:06:43.284Z,48.89
2018-09-16T16:09:11.791Z,49.74
2018-09-16T16:11:40.361Z,49.08
2018-09-16T16:14:08.627Z,49.18
2018-09-16T16:16:36.440Z,49.96
2018-09-16T16:19:04.021Z,50.02
2018-09-16T16:21:31.855Z,49.54
2018-09-16T16:23:59.754Z,49.89
2018-09-16T16:26:28.019Z,49.49
2018-09-16T16:28:55.982Z,49.32
2018-09-16T16:31:23.617Z,50.15
2018-09-16T16:33:51.881Z,50.20
2018-09-16T16:36:19.580Z,49.54
2018-09-16T16:38:47.672Z,50.15
2018-09-16T16:41:15.326Z,49.46
2018-09-16T16:43:43.257Z,50.10
2018-09-16T16:46:11.286Z,49.85
2018-09-16T16:48:39.525Z,50.25
2018-09-16T16:51:07.281Z,50.14
2018-09-16T16:53:35.552Z,49.54
2018-09-16T16:56:03.276Z,49.40
2018-09-16T16:58:30.899Z,49.49
2018-09-16T17:00:58.669Z,50.47
2018-09-16T17:03:26.646Z,49.78
2018-09-16T17:05:54.345Z,50.39
2018-09-16T17:08:22.290Z,50.15
2018-09-16T17:10:50.242Z,50.44
2018-09-16T17:13:17.907Z,49.91
2018-09-16T17:15:45.935Z,50.65
2018-09-16T17:18:13.583Z,50.12
2018-09-16T17:20:41.227Z,50.65
2018-09-16T17:23:09.208Z,50.58
2018-09-16T17:25:37.121Z,50.99
2018-09-16T17:28:05.050Z,50.86
2018-09-16T17:30:32.972Z,50.96
2018-09-16T17:33:00.721Z,51.25
2018-09-16T17:35:28.458Z,50.84
2018-09-16T17:37:56.144Z,50.82
2018-09-16T17:40:24.169Z,51.54
2018-09-16T17:42:51.864Z,51.13
2018-09-16T17:45:19.924Z,51.03
2018-09-16T17:47:47.548Z,50.98
2018-09-16T17:50:15.169Z,51.65
2018-09-16T17:52:42.837Z,51.08
2018-09-16T17:55:10.494Z,51.69
2018-09-16T17:57:38.436Z,51.17
2018-09-16T18:00:06.512Z,51.94
2018-09-16T18:02:34.463Z,51.94
2018-09-16T18:05:02.129Z,51.40
2018-09-16T18:07:30.174Z,51.88
2018-09-16T18:09:57.855Z,51.74
2018-09-16T18:12:25.567Z,51.82
2018-09-16T18:14:53.505Z,52.24
2018-09-16T18:17:21.480Z,52.18
2018-09-16T18:19:49.139Z,52.11
2018-09-16T18:22:17.169Z,51.88
2018-09-16T18:24:45.119Z,52.20
2018-09-16T18:27:13.397Z,52.46
2018-09-16T18:29:41.437Z,51.75
2018-09-16T18:32:09.087Z,51.87
2018-09-16T18:34:36.993Z,51.82
2018-09-16T18:37:04.690Z,51.95
2018-09-16T18:39:32.764Z,52.29
2018-09-16T18:42:00.413Z,51.95
2018-09-16T18:44:28.047Z,51.99
2018-09-16T18:46:55.983Z,52.81
2018-09-16T18:49:23.712Z,52.07
2018-09-16T18:51:51.668Z,52.59
2018-09-16T18:54:20.231Z,52.68
2018-09-16T18:56:48.141Z,52.90
2018-09-16T18:59:15.886Z,52.98
2018-09-16T19:01:43.643Z,52.39
2018-09-16T19:04:11.255Z,52.93
2018-09-16T19:06:39.234Z,52.46
2018-09-16T19:09:08.587Z,53.19
2018-09-16T19:11:36.463Z,52.42
2018-09-16T19:14:04.177Z,52.81
2018-09-16T19:16:32.267Z,53.31
2018-09-16T19:18:59.928Z,52.64
2018-09-16T19:21:27.594Z,52.70
2018-09-16T19:23:55.313Z,52.68
2018-09-16T19:26:23.549Z,52.69
2018-09-16T19:28:52.310Z,53.41
2018-09-16T19:31:20.055Z,52.84
2018-09-16T19:33:48.132Z,52.78
2018-09-16T19:36:15.821Z,53.51
2018-09-16T19:38:43.538Z,53.16
2018-09-16T19:41:11.250Z,53.59
2018-09-16T19:43:38.953Z,53.54
2018-09-16T19:46:06.715Z,53.71
2018-09-16T19:48:34.859Z,53.60
2018-09-16T19:51:02.969Z,53.27
2018-09-16T19:53:30.655Z,53.02
2018-09-16T19:55:58.285Z,53.07
2018-09-16T19:58:26.577Z,53.17
2018-09-16T20:00:54.200Z,53.55
2018-09-16T20:03:22.317Z,53.12
2018-09-16T20:05:49.974Z,53.56
2018-09-16T20:08:17.836Z,53.50
2018-09-16T20:10:45.559Z,53.15
2018-09-16T20:13:13.190Z,53.94
2018-09-16T20:15:40.918Z,53.30
2018-09-16T20:18:08.745Z,53.29
2018-09-16T20:20:36.368Z,53.93
2018-09-16T20:23:04.301Z,53.59
2018-09-16T20:25:32.177Z,53.46
2018-09-16T20:27:59.894Z,53.38
2018-09-16T20:30:27.824Z,53.29
2018-09-16T20:32:56.506Z,53.42
2018-09-16T20:35:24.437Z,53.74
2018-09-16T20:37:52.079Z,53.77
2018-09-16T20:40:19.756Z,53.95
2018-09-16T20:42:47.417Z,53.29
2018-09-16T20:45:15.138Z,53.29
2018-09-16T20:47:42.802Z,54.06
2018-09-16T20:50:11.389Z,53.40
2018-09-16T20:52:39.103Z,53.98
2018-09-16T20:55:07.091Z,54.30
2018-09-16T20:57:34.824Z,54.07
2018-09-16T21:00:02.534Z,53.45
2018-09-16T21:02:30.263Z,54.05
2018-09-16T21:04:58.346Z,53.60
2018-09-16T21:07:26.033Z,53.34
2018-09-16T21:09:53.823Z,53.36
2018-09-16T21:12:21.926Z,53.34
2018-09-16T21:14:49.617Z,53.62
2018-09-16T21:17:17.734Z,53.48
2018-09-16T21:19:45.525Z,54.16
2018-09-16T21:22:13.520Z,53.44
2018-09-16T21:24:41.385Z,53.60
2018-09-16T21:27:09.272Z,53.94
2018-09-16T21:29:36.911Z,53.38
2018-09-16T21:32:04.930Z,53.53
2018-09-16T21:34:32.648Z,54.09
2018-09-16T21:37:00.556Z,54.13
2018-09-16T21:39:28.480Z,53.53
2018-09-16T21:41:56.415Z,53.81
2018-09-16T21:44:24.542Z,53.45
2018-09-16T21:46:52.781Z,53.51
2018-09-16T21:49:20.582Z,54.03
2018-09-16T21:51:48.240Z,53.57
2018-09-16T21:54:16.507Z,54.26
2018-09-16T21:56:44.493Z,53.64
2018-09-16T21:59:12.733Z,54.24
2018-09-16T22:01:40.676Z,53.55
2018-09-16T22:04:09.200Z,54.14
2018-09-16T22:06:37.188Z,54.29
2018-09-16T22:09:07.376Z,54.42
2018-09-16T22:11:35.134Z,53.80
2018-09-16T22:14:02.773Z,53.83
2018-09-16T22:16:30.437Z,54.45
2018-09-16T22:18:58.388Z,54.41
2018-09-16T22:21:26.083Z,54.04
2018-09-16T22:23:54.324Z,54.59
2018-09-16T22:26:22.862Z,53.83
2018-09-16T22:28:50.857Z,54.28
2018-09-16T22:31:18.508Z,53.97
2018-09-16T22:33:46.961Z,54.50
2018-09-16T22:36:14.891Z,54.15
2018-09-16T22:38:43.026Z,53.85
2018-09-16T22:41:10.731Z,54.49
2018-09-16T22:43:38.724Z,54.16
2018-09-16T22:46:06.368Z,53.93
2018-09-16T22:48:34.414Z,54.37
2018-09-16T22:51:04.484Z,54.54
2018-09-16T22:53:32.728Z,53.94
2018-09-16T22:56:00.725Z,54.57
2018-09-16T22:58:28.972Z,54.13
2018-09-16T23:00:57.198Z,54.37
2018-09-16T23:03:24.856Z,54.64
2018-09-16T23:05:52.522Z,54.70
2018-09-16T23:08:20.225Z,54.67
2018-09-16T23:10:48.520Z,54.76
2018-09-16T23:13:16.197Z,54.14
2018-09-16T23:15:43.884Z,54.45
2018-09-16T23:18:11.553Z,54.80
2018-09-16T23:20:39.290Z,54.80
2018-09-16T23:23:06.957Z,54.05
2018-09-16T23:25:34.706Z,54.91
2018-09-16T23:28:02.523Z,54.77
2018-09-16T23:30:30.141Z,54.76
2018-09-16T23:32:58.111Z,54.51
2018-09-16T23:35:26.044Z,54.89
2018-09-16T23:37:54.071Z,54.84
2018-09-16T23:40:21.682Z,54.24
2018-09-16T23:42:49.395Z,54.98
2018-09-16T23:45:17.106Z,55.04
2018-09-16T23:47:45.021Z,54.29
2018-09-16T23:50:14.126Z,54.77
2018-09-16T23:52:41.811Z,54.86
2018-09-16T23:55:09.482Z,54.37
2018-09-16T23:57:37.731Z,54.98
